createdAt,value
2023-02-07T00:01:26.752Z,-6.74
2023-02-07T00:03:56.605Z,-6.58
2023-02-07T00:06:27.507Z,-6.77
2023-02-07T00:08:57.128Z,-6.88
2023-02-07T00:11:28.652Z,-6.89
2023-02-07T00:14:00.556Z,-6.85
2023-02-07T00:16:29.179Z,-6.92
2023-02-07T00:19:00.301Z,-6.92
2023-02-07T00:21:30.214Z,-7.02
2023-02-07T00:23:59.269Z,-7.10
2023-02-07T00:26:29.985Z,-7.10
2023-02-07T00:28:59.109Z,-7.16
2023-02-07T00:31:29.123Z,-7.19
2023-02-07T00:34:00.957Z,-7.19
2023-02-07T00:36:31.220Z,-7.08
2023-02-07T00:39:02.864Z,-7.24
2023-02-07T00:41:33.017Z,-7.41
2023-02-07T00:44:02.073Z,-7.47
2023-02-07T00:46:30.753Z,-7.38
2023-02-07T00:48:59.361Z,-7.50
2023-02-07T00:51:29.336Z,-7.51
2023-02-07T00:53:58.809Z,-7.58
2023-02-07T00:56:29.836Z,-7.51
2023-02-07T00:59:01.607Z,-7.57
2023-02-07T01:01:33.422Z,-7.64
2023-02-07T01:04:02.424Z,-7.67
2023-02-07T01:06:33.782Z,-7.57
2023-02-07T01:09:04.478Z,-7.44
2023-02-07T01:11:36.291Z,-7.47
2023-02-07T01:14:07.567Z,-7.85
2023-02-07T01:16:37.439Z,-8.01
2023-02-07T01:19:09.047Z,-8.06
2023-02-07T01:21:37.947Z,-8.12
2023-02-07T01:24:07.410Z,-8.20
2023-02-07T01:26:35.825Z,-8.12
2023-02-07T01:29:07.878Z,-8.07
2023-02-07T01:31:36.778Z,-8.13
2023-02-07T01:34:05.883Z,-8.15
2023-02-07T01:36:38.180Z,-8.29
2023-02-07T01:39:08.084Z,-8.37
2023-02-07T01:41:36.814Z,-8.40
2023-02-07T01:44:09.558Z,-8.36
2023-02-07T01:46:37.974Z,-8.34
2023-02-07T01:49:14.593Z,-8.40
2023-02-07T01:51:46.827Z,-8.51
2023-02-07T01:54:17.251Z,-8.60
2023-02-07T01:56:48.301Z,-8.58
2023-02-07T01:59:18.796Z,-8.62
2023-02-07T02:01:50.587Z,-8.65
2023-02-07T02:04:21.535Z,-8.68
2023-02-07T02:06:51.847Z,-8.67
2023-02-07T02:09:20.142Z,-8.69
2023-02-07T02:12:14.949Z,-8.81
2023-02-07T02:15:04.626Z,-8.81
2023-02-07T02:17:43.730Z,-8.83
2023-02-07T02:20:49.148Z,-8.99
2023-02-07T02:23:24.907Z,-9.11
2023-02-07T02:26:33.963Z,-8.99
2023-02-07T02:29:38.549Z,-8.96
2023-02-07T02:32:35.935Z,-8.95
2023-02-07T02:35:14.559Z,-9.01
2023-02-07T02:37:53.073Z,-9.04
2023-02-07T02:40:29.295Z,-9.06
2023-02-07T02:43:06.217Z,-9.05
2023-02-07T02:45:40.053Z,-9.06
2023-02-07T02:48:13.124Z,-9.15
2023-02-07T02:50:48.316Z,-9.04
2023-02-07T02:53:18.638Z,-9.09
2023-02-07T02:56:06.448Z,-9.06
2023-02-07T02:58:49.627Z,-9.01
2023-02-07T03:01:25.172Z,-9.16
2023-02-07T03:04:06.907Z,-9.19
2023-02-07T03:06:50.641Z,-9.27
2023-02-07T03:09:33.275Z,-9.15
2023-02-07T03:12:11.063Z,-9.23
2023-02-07T03:14:52.352Z,-9.24
2023-02-07T03:17:28.095Z,-9.26
2023-02-07T03:20:02.744Z,-9.27
2023-02-07T03:22:35.493Z,-9.37
2023-02-07T03:25:08.128Z,-9.40
2023-02-07T03:27:38.932Z,-9.36
2023-02-07T03:30:13.567Z,-9.32
2023-02-07T03:32:52.361Z,-9.34
2023-02-07T03:35:25.716Z,-9.40
2023-02-07T03:37:59.819Z,-9.33
2023-02-07T03:40:31.799Z,-9.26
2023-02-07T03:43:05.768Z,-9.29
2023-02-07T03:45:34.500Z,-9.33
2023-02-07T03:48:05.449Z,-9.39
2023-02-07T03:50:34.973Z,-9.40
2023-02-07T03:53:06.313Z,-9.33
2023-02-07T03:55:34.983Z,-9.30
2023-02-07T03:58:03.705Z,-9.19
2023-02-07T04:00:32.648Z,-9.23
2023-02-07T04:03:00.965Z,-9.29
2023-02-07T04:05:29.438Z,-9.32
2023-02-07T04:07:58.284Z,-9.18
2023-02-07T04:10:30.032Z,-9.09
2023-02-07T04:12:59.197Z,-9.16
2023-02-07T04:15:27.875Z,-9.36
2023-02-07T04:17:56.088Z,-9.34
2023-02-07T04:20:24.821Z,-9.46
2023-02-07T04:22:53.610Z,-9.42
2023-02-07T04:25:24.342Z,-9.50
2023-02-07T04:27:58.364Z,-9.47
2023-02-07T04:30:27.216Z,-9.64
2023-02-07T04:32:56.247Z,-9.64
2023-02-07T04:35:25.815Z,-9.67
2023-02-07T04:37:54.372Z,-9.60
2023-02-07T04:40:23.845Z,-9.57
2023-02-07T04:42:57.027Z,-9.48
2023-02-07T04:45:28.478Z,-9.65
2023-02-07T04:47:58.276Z,-9.64
2023-02-07T04:50:27.456Z,-9.55
2023-02-07T04:52:56.238Z,-9.58
2023-02-07T04:55:27.731Z,-9.63
2023-02-07T04:57:57.893Z,-9.61
2023-02-07T05:00:26.344Z,-9.67
2023-02-07T05:02:55.251Z,-9.61
2023-02-07T05:05:24.712Z,-9.48
2023-02-07T05:07:53.101Z,-9.48
2023-02-07T05:10:21.806Z,-9.48
2023-02-07T05:12:50.233Z,-9.61
2023-02-07T05:15:20.088Z,-9.63
2023-02-07T05:17:49.099Z,-9.68
2023-02-07T05:20:18.365Z,-9.74
2023-02-07T05:22:48.993Z,-9.79
2023-02-07T05:25:17.571Z,-9.84
2023-02-07T05:27:46.318Z,-9.79
2023-02-07T05:30:15.725Z,-9.85
2023-02-07T05:33:04.923Z,-9.88
2023-02-07T05:35:35.136Z,-9.84
2023-02-07T05:38:04.694Z,-9.82
2023-02-07T05:40:33.447Z,-9.85
2023-02-07T05:43:01.691Z,-9.85
2023-02-07T05:45:29.982Z,-9.85
2023-02-07T05:48:00.519Z,-9.81
2023-02-07T05:50:29.731Z,-9.40
2023-02-07T05:52:58.009Z,-9.51
2023-02-07T05:55:26.873Z,-9.68
2023-02-07T05:57:56.308Z,-9.82
2023-02-07T06:00:27.218Z,-9.99
2023-02-07T06:02:56.180Z,-9.94
2023-02-07T06:05:31.655Z,-9.84
2023-02-07T06:08:01.213Z,-9.75
2023-02-07T06:10:30.772Z,-9.81
2023-02-07T06:12:59.102Z,-9.84
2023-02-07T06:15:27.663Z,-9.82
2023-02-07T06:17:55.861Z,-9.73
2023-02-07T06:20:25.568Z,-9.75
2023-02-07T06:22:55.722Z,-9.74
2023-02-07T06:25:24.177Z,-9.77
2023-02-07T06:27:52.798Z,-9.74
2023-02-07T06:30:24.391Z,-9.71
2023-02-07T06:32:52.638Z,-9.67
2023-02-07T06:35:21.354Z,-9.60
2023-02-07T06:37:54.138Z,-9.55
2023-02-07T06:40:25.091Z,-9.53
2023-02-07T06:42:53.696Z,-9.51
2023-02-07T06:45:22.191Z,-9.39
2023-02-07T06:47:50.548Z,-9.34
2023-02-07T06:50:20.046Z,-9.26
2023-02-07T06:52:48.793Z,-9.26
2023-02-07T06:55:17.586Z,-9.05
2023-02-07T06:57:47.602Z,-8.92
2023-02-07T07:00:17.802Z,-8.95
2023-02-07T07:02:47.875Z,-8.88
2023-02-07T07:05:16.665Z,-8.85
2023-02-07T07:07:45.533Z,-8.94
2023-02-07T07:10:17.057Z,-8.95
2023-02-07T07:12:46.884Z,-8.88
2023-02-07T07:15:18.283Z,-8.77
2023-02-07T07:17:46.934Z,-8.72
2023-02-07T07:20:16.422Z,-8.67
2023-02-07T07:22:44.662Z,-8.43
2023-02-07T07:25:13.440Z,-8.34
2023-02-07T07:27:41.855Z,-8.10
2023-02-07T07:30:11.977Z,-7.70
2023-02-07T07:32:42.483Z,-7.75
2023-02-07T07:35:12.068Z,-7.59
2023-02-07T07:37:41.857Z,-7.54
2023-02-07T07:40:12.866Z,-7.65
2023-02-07T07:42:43.268Z,-7.46
2023-02-07T07:45:13.573Z,-7.30
2023-02-07T07:47:43.454Z,-7.20
2023-02-07T07:50:13.429Z,-7.00
2023-02-07T07:52:43.347Z,-6.89
2023-02-07T07:55:12.151Z,-6.82
2023-02-07T07:57:40.546Z,-6.40
2023-02-07T08:00:12.424Z,-6.36
2023-02-07T08:02:48.974Z,-6.29
2023-02-07T08:05:21.824Z,-6.20
2023-02-07T08:07:51.784Z,-5.98
2023-02-07T08:10:20.674Z,-5.74
2023-02-07T08:12:50.535Z,-5.72
2023-02-07T08:15:19.732Z,-5.65
2023-02-07T08:17:49.581Z,-5.72
2023-02-07T08:20:19.275Z,-5.55
2023-02-07T08:22:48.076Z,-5.60
2023-02-07T08:25:17.131Z,-5.50
2023-02-07T08:27:46.174Z,-5.37
2023-02-07T08:30:15.968Z,-5.17
2023-02-07T08:32:45.414Z,-4.95
2023-02-07T08:35:17.675Z,-4.73
2023-02-07T08:37:49.869Z,-4.88
2023-02-07T08:40:19.238Z,-4.73
2023-02-07T08:42:48.223Z,-4.55
2023-02-07T08:45:18.299Z,-4.51
2023-02-07T08:47:47.674Z,-4.21
2023-02-07T08:50:20.242Z,-4.05
2023-02-07T08:52:50.407Z,-3.97
2023-02-07T08:55:18.913Z,-3.82
2023-02-07T08:57:48.515Z,-3.74
2023-02-07T09:00:19.036Z,-3.79
2023-02-07T09:02:48.291Z,-3.61
2023-02-07T09:05:17.003Z,-3.26
2023-02-07T09:07:48.737Z,-2.92
2023-02-07T09:10:17.143Z,-3.17
2023-02-07T09:12:45.445Z,-3.10
2023-02-07T09:15:14.414Z,-3.11
2023-02-07T09:17:45.895Z,-2.87
2023-02-07T09:20:14.500Z,-2.83
2023-02-07T09:23:00.856Z,-2.55
2023-02-07T09:25:31.906Z,-2.54
2023-02-07T09:28:00.694Z,-2.57
2023-02-07T09:30:29.189Z,-2.64
2023-02-07T09:32:59.633Z,-2.51
2023-02-07T09:35:30.213Z,-2.18
2023-02-07T09:37:58.975Z,-2.15
2023-02-07T09:40:32.973Z,-2.20
2023-02-07T09:43:11.741Z,-2.01
2023-02-07T09:45:46.673Z,-1.90
2023-02-07T09:48:19.872Z,-1.62
2023-02-07T09:50:55.220Z,-1.37
2023-02-07T09:53:28.076Z,-1.15
2023-02-07T09:56:00.781Z,-1.42
2023-02-07T09:58:40.835Z,-1.40
2023-02-07T10:01:15.821Z,-1.37
2023-02-07T10:03:50.464Z,-1.03
2023-02-07T10:06:30.100Z,-0.90
2023-02-07T10:09:04.203Z,-0.63
2023-02-07T10:11:43.188Z,-0.49
2023-02-07T10:14:28.416Z,-0.63
2023-02-07T10:17:31.042Z,-0.69
2023-02-07T10:20:18.540Z,-0.29
2023-02-07T10:22:57.487Z,-0.14
2023-02-07T10:25:37.384Z,-0.14
2023-02-07T10:28:30.334Z,-0.04
2023-02-07T10:31:04.100Z,-0.07
2023-02-07T10:33:35.061Z,0.45
2023-02-07T10:36:06.600Z,0.43
2023-02-07T10:38:42.862Z,0.34
2023-02-07T10:41:17.971Z,0.23
2023-02-07T10:43:50.112Z,0.07
2023-02-07T10:46:22.080Z,0.62
2023-02-07T10:48:51.061Z,0.20
2023-02-07T10:51:29.130Z,0.20
2023-02-07T10:54:08.744Z,0.57
2023-02-07T10:56:42.988Z,0.55
2023-02-07T10:59:36.721Z,0.38
2023-02-07T11:02:39.829Z,0.89
2023-02-07T11:05:32.108Z,0.85
2023-02-07T11:08:02.732Z,0.14
2023-02-07T11:10:35.562Z,0.17
2023-02-07T11:13:06.302Z,0.47
2023-02-07T11:15:41.290Z,0.54
2023-02-07T11:18:24.808Z,0.51
2023-02-07T11:20:56.337Z,0.81
2023-02-07T11:23:25.592Z,1.22
2023-02-07T11:25:56.876Z,1.16
2023-02-07T11:28:30.374Z,1.23
2023-02-07T11:31:05.681Z,1.16
2023-02-07T11:33:36.681Z,1.36
2023-02-07T11:36:11.877Z,1.46
2023-02-07T11:38:42.893Z,1.15
2023-02-07T11:41:24.545Z,0.93
2023-02-07T11:43:55.887Z,1.41
2023-02-07T11:46:34.426Z,0.99
2023-02-07T11:49:04.674Z,1.41
2023-02-07T11:51:35.925Z,0.89
2023-02-07T11:54:08.850Z,1.19
2023-02-07T11:56:41.308Z,1.17
2023-02-07T11:59:16.573Z,1.31
2023-02-07T12:01:52.390Z,0.38
2023-02-07T12:04:26.188Z,0.61
2023-02-07T12:06:58.633Z,0.79
2023-02-07T12:09:35.121Z,0.81
2023-02-07T12:12:06.518Z,1.02
2023-02-07T12:14:40.796Z,1.27
2023-02-07T12:17:22.240Z,1.23
2023-02-07T12:19:54.056Z,1.34
2023-02-07T12:22:27.492Z,1.48
2023-02-07T12:25:02.688Z,1.47
2023-02-07T12:27:36.654Z,1.07
2023-02-07T12:30:17.760Z,0.89
2023-02-07T12:32:54.691Z,1.09
2023-02-07T12:35:29.388Z,1.10
2023-02-07T12:38:06.728Z,1.02
2023-02-07T12:40:40.787Z,1.13
2023-02-07T12:43:13.963Z,1.16
2023-02-07T12:45:58.781Z,1.12
2023-02-07T12:48:39.646Z,1.40
2023-02-07T12:51:23.910Z,1.48
2023-02-07T12:54:10.833Z,1.37
2023-02-07T12:56:51.132Z,1.15
2023-02-07T12:59:26.729Z,1.24
2023-02-07T13:02:06.072Z,1.23
2023-02-07T13:05:08.381Z,1.27
2023-02-07T13:07:53.101Z,1.23
2023-02-07T13:10:28.849Z,1.19
2023-02-07T13:13:03.786Z,1.57
2023-02-07T13:15:39.310Z,1.78
2023-02-07T13:18:15.771Z,1.39
2023-02-07T13:20:55.029Z,1.70
2023-02-07T13:23:26.921Z,1.97
2023-02-07T13:25:58.301Z,2.18
2023-02-07T13:28:30.497Z,2.10
2023-02-07T13:31:00.249Z,2.27
2023-02-07T13:33:36.013Z,2.41
2023-02-07T13:36:18.930Z,1.99
2023-02-07T13:38:57.788Z,2.29
2023-02-07T13:41:37.800Z,2.37
2023-02-07T13:44:16.114Z,2.19
2023-02-07T13:47:01.780Z,1.74
2023-02-07T13:49:43.493Z,1.24
2023-02-07T13:52:18.238Z,0.92
2023-02-07T13:55:00.414Z,0.89
2023-02-07T13:58:01.132Z,0.91
2023-02-07T14:00:31.719Z,0.86
2023-02-07T14:03:03.787Z,0.82
2023-02-07T14:05:33.191Z,0.83
2023-02-07T14:08:06.258Z,0.83
2023-02-07T14:10:47.428Z,0.82
2023-02-07T14:13:33.693Z,0.62
2023-02-07T14:16:09.169Z,0.64
2023-02-07T14:18:44.398Z,0.62
2023-02-07T14:21:27.261Z,0.60
2023-02-07T14:24:20.041Z,0.48
2023-02-07T14:27:00.613Z,0.50
2023-02-07T14:30:14.431Z,0.44
2023-02-07T14:32:47.187Z,0.43
2023-02-07T14:35:36.755Z,0.30
2023-02-07T14:38:21.536Z,0.36
2023-02-07T14:41:09.704Z,0.30
2023-02-07T14:44:07.085Z,0.23
2023-02-07T14:46:38.903Z,0.23
2023-02-07T14:49:15.647Z,0.18
2023-02-07T14:51:47.007Z,0.13
2023-02-07T14:54:21.388Z,0.03
2023-02-07T14:57:05.907Z,0.09
2023-02-07T14:59:41.127Z,0.00
2023-02-07T15:02:31.149Z,-0.15
2023-02-07T15:05:10.756Z,-0.17
2023-02-07T15:07:39.565Z,-0.22
2023-02-07T15:10:16.049Z,-0.36
2023-02-07T15:12:47.343Z,-0.44
2023-02-07T15:15:21.675Z,-0.53
2023-02-07T15:17:51.897Z,-0.61
2023-02-07T15:20:24.443Z,-0.70
2023-02-07T15:22:56.132Z,-0.68
2023-02-07T15:25:26.784Z,-0.79
2023-02-07T15:28:07.703Z,-0.90
2023-02-07T15:30:38.366Z,-1.00
2023-02-07T15:33:13.327Z,-0.90
2023-02-07T15:35:42.153Z,-0.99
2023-02-07T15:38:19.300Z,-1.05
2023-02-07T15:40:48.546Z,-1.15
2023-02-07T15:43:32.778Z,-1.21
2023-02-07T15:46:08.646Z,-1.24
2023-02-07T15:48:49.694Z,-1.22
2023-02-07T15:51:23.184Z,-1.27
2023-02-07T15:53:54.144Z,-1.35
2023-02-07T15:56:22.621Z,-1.40
2023-02-07T15:58:52.788Z,-1.52
2023-02-07T16:01:25.747Z,-1.66
2023-02-07T16:03:57.407Z,-1.73
2023-02-07T16:06:29.096Z,-1.73
2023-02-07T16:09:00.160Z,-1.80
2023-02-07T16:11:41.535Z,-1.97
2023-02-07T16:14:26.044Z,-2.00
2023-02-07T16:16:56.289Z,-1.87
2023-02-07T16:19:28.168Z,-1.85
2023-02-07T16:22:03.887Z,-1.83
2023-02-07T16:24:36.281Z,-1.87
2023-02-07T16:27:05.651Z,-1.99
2023-02-07T16:29:37.556Z,-1.99
2023-02-07T16:32:07.818Z,-1.97
2023-02-07T16:34:37.017Z,-1.93
2023-02-07T16:37:10.148Z,-1.91
2023-02-07T16:39:42.293Z,-2.00
2023-02-07T16:42:16.433Z,-2.09
2023-02-07T16:44:47.436Z,-2.17
2023-02-07T16:47:16.287Z,-2.28
2023-02-07T16:49:46.738Z,-2.47
2023-02-07T16:52:15.146Z,-2.51
2023-02-07T16:54:51.073Z,-2.51
2023-02-07T16:57:21.453Z,-2.59
2023-02-07T16:59:54.192Z,-2.45
2023-02-07T17:02:27.059Z,-2.54
2023-02-07T17:04:58.415Z,-2.52
2023-02-07T17:07:26.671Z,-2.58
2023-02-07T17:09:58.550Z,-2.69
2023-02-07T17:12:27.399Z,-2.92
2023-02-07T17:14:57.006Z,-3.08
2023-02-07T17:17:25.992Z,-3.18
2023-02-07T17:19:56.034Z,-3.35
2023-02-07T17:22:24.709Z,-3.41
2023-02-07T17:24:53.718Z,-3.34
2023-02-07T17:27:22.139Z,-3.31
2023-02-07T17:29:50.690Z,-3.40
2023-02-07T17:32:21.698Z,-3.33
2023-02-07T17:34:50.176Z,-3.48
2023-02-07T17:37:18.869Z,-3.51
2023-02-07T17:39:48.298Z,-3.54
2023-02-07T17:42:18.536Z,-3.65
2023-02-07T17:44:49.604Z,-3.72
2023-02-07T17:47:20.376Z,-3.71
2023-02-07T17:49:53.364Z,-3.72
2023-02-07T17:52:25.278Z,-3.78
2023-02-07T17:54:55.641Z,-3.87
2023-02-07T17:57:25.962Z,-4.02
2023-02-07T17:59:55.784Z,-4.06
2023-02-07T18:02:27.736Z,-4.10
2023-02-07T18:04:59.271Z,-4.16
2023-02-07T18:07:31.042Z,-4.13
2023-02-07T18:10:02.171Z,-4.24
2023-02-07T18:12:32.304Z,-4.24
2023-02-07T18:15:01.006Z,-4.24
2023-02-07T18:17:29.803Z,-4.27
2023-02-07T18:20:00.848Z,-4.23
2023-02-07T18:22:30.291Z,-4.20
2023-02-07T18:25:01.012Z,-4.28
2023-02-07T18:27:31.845Z,-4.37
2023-02-07T18:30:02.097Z,-4.47
2023-02-07T18:32:34.439Z,-4.38
2023-02-07T18:35:06.222Z,-4.61
2023-02-07T18:37:36.077Z,-4.62
2023-02-07T18:40:10.318Z,-4.62
2023-02-07T18:42:42.304Z,-4.66
2023-02-07T18:45:13.762Z,-4.58
2023-02-07T18:47:43.446Z,-4.66
2023-02-07T18:50:19.603Z,-4.64
2023-02-07T18:52:51.033Z,-4.66
2023-02-07T18:55:20.683Z,-4.71
2023-02-07T18:57:51.709Z,-4.78
2023-02-07T19:00:21.362Z,-4.79
2023-02-07T19:02:51.863Z,-4.81
2023-02-07T19:05:22.736Z,-4.85
2023-02-07T19:07:55.525Z,-4.88
2023-02-07T19:10:28.043Z,-4.85
2023-02-07T19:12:57.843Z,-4.95
2023-02-07T19:15:29.365Z,-4.96
2023-02-07T19:18:01.217Z,-4.97
2023-02-07T19:20:35.902Z,-4.86
2023-02-07T19:23:04.971Z,-4.89
2023-02-07T19:25:34.770Z,-5.06
2023-02-07T19:28:04.855Z,-5.07
2023-02-07T19:30:35.214Z,-5.00
2023-02-07T19:33:04.867Z,-4.89
2023-02-07T19:35:38.327Z,-4.99
2023-02-07T19:38:13.418Z,-5.04
2023-02-07T19:40:46.184Z,-5.22
2023-02-07T19:43:16.487Z,-5.27
2023-02-07T19:45:48.663Z,-5.23
2023-02-07T19:48:18.308Z,-5.33
2023-02-07T19:50:48.732Z,-5.46
2023-02-07T19:53:21.513Z,-5.26
2023-02-07T19:55:54.420Z,-4.89
2023-02-07T19:58:24.075Z,-4.97
2023-02-07T20:00:54.999Z,-5.09
2023-02-07T20:03:28.599Z,-5.17
2023-02-07T20:06:04.180Z,-5.24
2023-02-07T20:08:35.858Z,-5.35
2023-02-07T20:11:06.994Z,-5.00
2023-02-07T20:13:37.964Z,-4.76
2023-02-07T20:16:09.476Z,-5.14
2023-02-07T20:18:39.729Z,-5.44
2023-02-07T20:21:14.285Z,-5.57
2023-02-07T20:23:46.617Z,-5.43
2023-02-07T20:26:19.071Z,-5.20
2023-02-07T20:28:51.696Z,-4.92
2023-02-07T20:31:23.666Z,-5.06
2023-02-07T20:33:54.650Z,-5.31
2023-02-07T20:36:26.601Z,-5.30
2023-02-07T20:38:58.404Z,-4.82
2023-02-07T20:41:31.794Z,-5.12
2023-02-07T20:44:05.059Z,-5.46
2023-02-07T20:46:36.106Z,-5.52
2023-02-07T20:49:07.662Z,-5.43
2023-02-07T20:51:40.346Z,-5.33
2023-02-07T20:54:09.244Z,-5.28
2023-02-07T20:56:38.098Z,-5.34
2023-02-07T20:59:07.137Z,-5.35
2023-02-07T21:01:37.277Z,-5.38
2023-02-07T21:04:07.342Z,-5.30
2023-02-07T21:06:38.796Z,-5.23
2023-02-07T21:09:08.009Z,-5.31
2023-02-07T21:11:39.438Z,-5.30
2023-02-07T21:14:11.185Z,-5.28
2023-02-07T21:16:39.824Z,-5.28
2023-02-07T21:19:09.956Z,-5.23
2023-02-07T21:21:41.485Z,-5.30
2023-02-07T21:24:11.819Z,-5.31
2023-02-07T21:26:40.777Z,-5.27
2023-02-07T21:29:11.943Z,-5.19
2023-02-07T21:31:42.177Z,-5.28
2023-02-07T21:34:13.781Z,-5.27
2023-02-07T21:36:52.352Z,-5.23
2023-02-07T21:39:34.816Z,-5.37
2023-02-07T21:42:09.098Z,-5.47
2023-02-07T21:44:38.692Z,-5.41
2023-02-07T21:47:11.049Z,-5.38
2023-02-07T21:49:43.384Z,-5.26
2023-02-07T21:52:16.039Z,-5.35
2023-02-07T21:54:46.479Z,-5.30
2023-02-07T21:57:17.813Z,-5.35
2023-02-07T21:59:50.311Z,-5.44
2023-02-07T22:02:22.250Z,-5.43
2023-02-07T22:04:52.126Z,-5.34
2023-02-07T22:07:24.905Z,-5.41
2023-02-07T22:09:54.838Z,-5.51
2023-02-07T22:12:29.000Z,-5.48
2023-02-07T22:15:05.242Z,-5.54
2023-02-07T22:17:36.849Z,-5.55
2023-02-07T22:20:07.376Z,-5.55
2023-02-07T22:22:45.710Z,-5.52
2023-02-07T22:25:19.927Z,-5.50
2023-02-07T22:27:52.293Z,-5.51
2023-02-07T22:30:23.564Z,-5.48
2023-02-07T22:32:56.981Z,-5.55
2023-02-07T22:35:30.219Z,-5.51
2023-02-07T22:38:03.224Z,-5.62
2023-02-07T22:40:34.113Z,-5.60
2023-02-07T22:43:07.498Z,-5.68
2023-02-07T22:45:41.871Z,-5.65
2023-02-07T22:48:11.519Z,-5.64
2023-02-07T22:50:45.022Z,-5.57
2023-02-07T22:53:21.063Z,-5.74
2023-02-07T22:56:08.884Z,-5.91
2023-02-07T22:58:43.475Z,-5.93
2023-02-07T23:01:23.960Z,-5.96
2023-02-07T23:03:55.547Z,-5.95
2023-02-07T23:06:29.946Z,-5.99
2023-02-07T23:09:11.313Z,-5.95
2023-02-07T23:11:43.208Z,-5.88
2023-02-07T23:14:16.424Z,-5.91
2023-02-07T23:16:48.155Z,-5.86
2023-02-07T23:19:21.412Z,-5.81
2023-02-07T23:21:51.033Z,-5.89
2023-02-07T23:24:22.775Z,-5.86
2023-02-07T23:26:51.144Z,-5.74
2023-02-07T23:29:21.370Z,-5.70
2023-02-07T23:32:00.666Z,-5.65
2023-02-07T23:34:30.598Z,-5.68
2023-02-07T23:37:00.974Z,-5.57
2023-02-07T23:39:32.205Z,-5.54
2023-02-07T23:42:10.651Z,-5.31
2023-02-07T23:44:41.053Z,-5.28
2023-02-07T23:47:11.564Z,-5.13
2023-02-07T23:49:42.315Z,-5.09
2023-02-07T23:52:11.416Z,-5.00
2023-02-07T23:54:43.290Z,-4.93
2023-02-07T23:57:14.504Z,-4.83
2023-02-07T23:59:46.241Z,-4.75
